createdAt,value
2019-06-26T00:01:16.749Z,6.97
2019-06-26T00:03:43.045Z,6.20
2019-06-26T00:06:10.664Z,6.20
2019-06-26T00:08:36.931Z,6.40
2019-06-26T00:11:03.680Z,6.03
2019-06-26T00:13:31.040Z,6.33
2019-06-26T00:15:57.330Z,5.57
2019-06-26T00:18:23.695Z,7.70
2019-06-26T00:20:50.469Z,6.57
2019-06-26T00:23:16.796Z,6.00
2019-06-26T00:25:43.488Z,5.73
2019-06-26T00:28:10.054Z,8.83
2019-06-26T00:30:36.338Z,7.17
2019-06-26T00:33:02.824Z,5.73
2019-06-26T00:35:29.528Z,7.07
2019-06-26T00:37:55.943Z,6.77
2019-06-26T00:40:22.218Z,6.63
2019-06-26T00:42:48.511Z,38.20
2019-06-26T00:45:15.189Z,5.83
2019-06-26T00:47:41.575Z,6.27
2019-06-26T00:50:08.960Z,7.20
2019-06-26T00:52:35.791Z,7.70
2019-06-26T00:55:06.175Z,6.47
2019-06-26T00:57:32.689Z,6.67
2019-06-26T01:00:00.951Z,7.50
2019-06-26T01:02:27.446Z,8.50
2019-06-26T01:04:58.423Z,6.03
2019-06-26T01:07:24.933Z,5.90
2019-06-26T01:09:51.275Z,6.87
2019-06-26T01:12:18.019Z,6.33
2019-06-26T01:14:44.760Z,6.00
2019-06-26T01:17:11.145Z,6.60
2019-06-26T01:19:37.402Z,7.77
2019-06-26T01:22:03.788Z,6.80
2019-06-26T01:24:30.182Z,5.97
2019-06-26T01:26:56.819Z,6.40
2019-06-26T01:29:23.114Z,7.23
2019-06-26T01:31:49.375Z,5.80
2019-06-26T01:34:15.687Z,6.00
2019-06-26T01:36:41.969Z,7.10
2019-06-26T01:39:08.385Z,7.80
2019-06-26T01:41:35.109Z,6.13
2019-06-26T01:44:14.255Z,7.03
2019-06-26T01:46:31.271Z,7.80
2019-06-26T01:48:57.550Z,6.70
2019-06-26T01:51:23.817Z,5.97
2019-06-26T01:53:50.215Z,6.13
2019-06-26T01:56:16.678Z,6.63
2019-06-26T01:58:43.024Z,6.60
2019-06-26T02:01:09.883Z,6.67
2019-06-26T02:03:36.234Z,7.97
2019-06-26T02:06:03.063Z,6.13
2019-06-26T02:08:29.452Z,6.53
2019-06-26T02:10:56.233Z,7.53
2019-06-26T02:13:22.906Z,7.70
2019-06-26T02:15:49.216Z,6.20
2019-06-26T02:18:35.834Z,7.17
2019-06-26T02:21:02.297Z,6.07
2019-06-26T02:23:28.777Z,6.07
2019-06-26T02:25:55.166Z,6.00
2019-06-26T02:28:21.435Z,8.90
2019-06-26T02:30:48.310Z,7.10
2019-06-26T02:33:14.580Z,7.00
2019-06-26T02:35:40.894Z,8.03
2019-06-26T02:38:07.176Z,7.23
2019-06-26T02:40:33.669Z,7.00
2019-06-26T02:43:00.620Z,8.00
2019-06-26T02:45:27.173Z,6.67
2019-06-26T02:47:53.568Z,9.07
2019-06-26T02:50:19.969Z,6.53
2019-06-26T02:52:47.345Z,7.27
2019-06-26T02:55:14.107Z,7.87
2019-06-26T02:57:40.479Z,8.23
2019-06-26T03:00:07.331Z,6.03
2019-06-26T03:02:34.904Z,6.70
2019-06-26T03:05:01.494Z,7.17
2019-06-26T03:07:27.866Z,7.67
2019-06-26T03:09:54.354Z,6.47
2019-06-26T03:12:20.731Z,6.70
2019-06-26T03:14:47.013Z,6.77
2019-06-26T03:17:13.770Z,6.50
2019-06-26T03:19:40.515Z,8.07
2019-06-26T03:22:06.984Z,6.97
2019-06-26T03:24:47.298Z,7.50
2019-06-26T03:27:14.664Z,7.73
2019-06-26T03:29:40.987Z,7.20
2019-06-26T03:32:07.274Z,6.57
2019-06-26T03:34:34.068Z,7.73
2019-06-26T03:37:00.326Z,6.70
2019-06-26T03:39:27.043Z,6.40
2019-06-26T03:41:53.302Z,7.67
2019-06-26T03:44:19.603Z,8.13
2019-06-26T03:46:46.104Z,7.00
2019-06-26T03:49:12.554Z,6.30
2019-06-26T03:51:40.073Z,8.00
2019-06-26T03:54:06.530Z,9.73
2019-06-26T03:56:32.906Z,6.27
2019-06-26T03:58:59.175Z,7.10
2019-06-26T04:01:25.462Z,7.53
2019-06-26T04:03:52.084Z,8.23
2019-06-26T04:06:18.484Z,7.23
2019-06-26T04:08:44.837Z,8.77
2019-06-26T04:11:11.222Z,7.20
2019-06-26T04:13:37.488Z,7.23
2019-06-26T04:16:03.970Z,7.43
2019-06-26T04:18:30.600Z,8.20
2019-06-26T04:20:57.009Z,6.83
2019-06-26T04:23:23.428Z,7.77
2019-06-26T04:25:49.989Z,8.73
2019-06-26T04:28:16.350Z,10.30
2019-06-26T04:30:42.631Z,8.27
2019-06-26T04:33:09.249Z,9.77
2019-06-26T04:35:35.550Z,6.73
2019-06-26T04:38:01.914Z,7.30
2019-06-26T04:40:28.472Z,7.00
2019-06-26T04:42:55.122Z,8.77
2019-06-26T04:45:21.698Z,7.40
2019-06-26T04:47:48.005Z,7.77
2019-06-26T04:50:15.069Z,8.10
2019-06-26T04:52:41.459Z,8.33
2019-06-26T04:55:08.622Z,8.87
2019-06-26T04:57:35.407Z,8.33
2019-06-26T05:00:05.699Z,8.63
2019-06-26T05:02:32.327Z,9.00
2019-06-26T05:04:58.885Z,9.40
2019-06-26T05:07:25.173Z,9.53
2019-06-26T05:09:51.439Z,8.67
2019-06-26T05:12:19.216Z,8.57
2019-06-26T05:14:45.576Z,8.80
2019-06-26T05:17:11.887Z,8.03
2019-06-26T05:19:38.154Z,8.00
2019-06-26T05:22:04.818Z,7.90
2019-06-26T05:24:31.207Z,8.43
2019-06-26T05:26:57.494Z,8.63
2019-06-26T05:29:23.861Z,8.77
2019-06-26T05:31:50.144Z,8.70
2019-06-26T05:34:16.770Z,15.27
2019-06-26T05:36:43.406Z,11.93
2019-06-26T05:39:09.670Z,8.83
2019-06-26T05:41:36.223Z,12.47
2019-06-26T05:44:03.582Z,8.63
2019-06-26T05:46:31.365Z,8.93
2019-06-26T05:48:58.244Z,9.73
2019-06-26T05:51:24.528Z,8.80
2019-06-26T05:53:51.046Z,10.57
2019-06-26T05:56:17.512Z,13.13
2019-06-26T05:58:43.871Z,14.33
2019-06-26T06:01:10.349Z,9.23
2019-06-26T06:03:38.012Z,13.83
2019-06-26T06:06:04.734Z,10.20
2019-06-26T06:08:31.118Z,9.30
2019-06-26T06:10:58.492Z,10.37
2019-06-26T06:13:25.260Z,11.90
2019-06-26T06:15:51.622Z,12.30
2019-06-26T06:18:18.348Z,11.23
2019-06-26T06:20:44.740Z,12.57
2019-06-26T06:23:11.052Z,10.77
2019-06-26T06:25:37.419Z,12.50
2019-06-26T06:28:03.909Z,11.77
2019-06-26T06:30:30.595Z,12.13
2019-06-26T06:32:56.982Z,12.53
2019-06-26T06:35:23.497Z,14.70
2019-06-26T06:37:50.147Z,14.10
2019-06-26T06:40:17.270Z,13.97
2019-06-26T06:42:43.650Z,13.77
2019-06-26T06:45:10.331Z,12.07
2019-06-26T06:47:36.895Z,13.33
2019-06-26T06:50:04.194Z,13.20
2019-06-26T06:52:30.796Z,14.03
2019-06-26T06:54:57.249Z,12.43
2019-06-26T06:57:24.046Z,13.53
2019-06-26T06:59:50.510Z,14.27
2019-06-26T07:02:17.119Z,16.83
2019-06-26T07:04:43.419Z,15.63
2019-06-26T07:07:09.791Z,15.90
2019-06-26T07:09:36.270Z,15.83
2019-06-26T07:12:02.731Z,15.27
2019-06-26T07:14:29.366Z,15.67
2019-06-26T07:16:55.635Z,14.83
2019-06-26T07:19:23.122Z,13.13
2019-06-26T07:21:49.414Z,15.70
2019-06-26T07:24:15.743Z,16.27
2019-06-26T07:26:42.358Z,13.83
2019-06-26T07:29:08.650Z,15.13
2019-06-26T07:31:38.355Z,16.17
2019-06-26T07:34:03.302Z,15.47
2019-06-26T07:36:29.658Z,15.13
2019-06-26T07:38:56.132Z,15.57
2019-06-26T07:41:22.826Z,15.93
2019-06-26T07:43:49.122Z,16.60
2019-06-26T07:46:15.482Z,17.70
2019-06-26T07:48:42.330Z,17.80
2019-06-26T07:51:08.634Z,16.60
2019-06-26T07:53:34.926Z,14.93
2019-06-26T07:56:01.206Z,16.57
2019-06-26T07:58:27.670Z,15.93
2019-06-26T08:00:53.977Z,17.40
2019-06-26T08:03:20.327Z,15.97
2019-06-26T08:06:07.286Z,16.97
2019-06-26T08:08:33.946Z,17.87
2019-06-26T08:11:00.216Z,17.60
2019-06-26T08:13:27.734Z,16.13
2019-06-26T08:15:54.018Z,15.90
2019-06-26T08:18:20.310Z,15.90
2019-06-26T08:21:00.413Z,15.20
2019-06-26T08:23:14.796Z,17.47
2019-06-26T08:25:41.362Z,16.47
2019-06-26T08:28:07.630Z,17.00
2019-06-26T08:30:34.098Z,16.43
2019-06-26T08:33:00.462Z,18.43
2019-06-26T08:35:26.948Z,17.97
2019-06-26T08:38:08.842Z,16.70
2019-06-26T08:40:21.598Z,16.67
2019-06-26T08:42:48.067Z,16.33
2019-06-26T08:45:14.862Z,16.37
2019-06-26T08:47:42.124Z,19.50
2019-06-26T08:50:09.902Z,16.27
2019-06-26T08:52:36.388Z,17.20
2019-06-26T08:55:06.411Z,16.93
2019-06-26T08:57:32.801Z,16.93
2019-06-26T09:00:00.294Z,17.42
2019-06-26T09:02:26.570Z,16.23
2019-06-26T09:04:52.950Z,16.65
2019-06-26T09:07:19.542Z,17.32
2019-06-26T09:09:58.986Z,16.17
2019-06-26T09:12:25.614Z,16.75
2019-06-26T09:14:51.939Z,16.65
2019-06-26T09:17:18.671Z,17.20
2019-06-26T09:19:45.430Z,17.87
2019-06-26T09:22:11.746Z,17.48
2019-06-26T09:24:38.478Z,17.05
2019-06-26T09:27:04.930Z,16.12
2019-06-26T09:29:31.612Z,15.95
2019-06-26T09:31:57.971Z,18.00
2019-06-26T09:34:24.643Z,18.23
2019-06-26T09:36:50.925Z,15.23
2019-06-26T09:39:17.722Z,14.95
2019-06-26T09:41:43.982Z,15.68
2019-06-26T09:44:10.246Z,15.30
2019-06-26T09:46:36.553Z,14.35
2019-06-26T09:49:03.024Z,13.58
2019-06-26T09:51:29.411Z,13.48
2019-06-26T09:53:55.697Z,13.08
2019-06-26T09:56:22.074Z,12.75
2019-06-26T09:58:48.343Z,13.32
2019-06-26T10:01:15.092Z,12.20
2019-06-26T10:03:45.012Z,12.70
2019-06-26T10:06:09.738Z,12.20
2019-06-26T10:08:36.002Z,12.88
2019-06-26T10:11:02.594Z,19.32
2019-06-26T10:13:29.006Z,11.88
2019-06-26T10:15:55.371Z,11.48
2019-06-26T10:18:21.670Z,11.90
2019-06-26T10:20:47.979Z,11.68
2019-06-26T10:23:14.346Z,12.05
2019-06-26T10:25:40.761Z,12.55
2019-06-26T10:28:07.211Z,11.85
2019-06-26T10:30:34.798Z,12.43
2019-06-26T10:33:01.319Z,12.85
2019-06-26T10:35:28.225Z,11.73
2019-06-26T10:37:54.679Z,11.53
2019-06-26T10:40:21.338Z,10.48
2019-06-26T10:42:47.695Z,10.78
2019-06-26T10:45:14.645Z,10.13
2019-06-26T10:47:40.966Z,10.95
2019-06-26T10:50:07.759Z,10.05
2019-06-26T10:52:34.345Z,9.90
2019-06-26T10:55:00.639Z,9.45
2019-06-26T10:57:27.199Z,9.65
2019-06-26T10:59:55.982Z,9.05
2019-06-26T11:02:23.683Z,9.13
2019-06-26T11:04:50.078Z,9.50
2019-06-26T11:07:16.682Z,9.35
2019-06-26T11:09:42.995Z,9.78
2019-06-26T11:12:10.359Z,9.78
2019-06-26T11:14:36.819Z,10.05
2019-06-26T11:17:04.223Z,9.48
2019-06-26T11:19:43.248Z,9.43
2019-06-26T11:21:58.988Z,9.90
2019-06-26T11:24:25.368Z,10.35
2019-06-26T11:26:51.759Z,8.90
2019-06-26T11:29:18.127Z,9.70
2019-06-26T11:31:44.423Z,9.53
2019-06-26T11:34:10.778Z,9.35
2019-06-26T11:36:37.071Z,8.85
2019-06-26T11:39:05.438Z,9.68
2019-06-26T11:41:31.937Z,9.73
2019-06-26T11:43:58.292Z,9.38
2019-06-26T11:46:24.959Z,9.25
2019-06-26T11:48:51.425Z,9.68
2019-06-26T11:51:17.810Z,9.10
2019-06-26T11:53:44.094Z,9.50
2019-06-26T11:56:10.954Z,9.80
2019-06-26T11:58:37.243Z,10.30
2019-06-26T12:01:03.516Z,9.30
2019-06-26T12:03:29.947Z,9.60
2019-06-26T12:06:10.689Z,9.75
2019-06-26T12:08:24.590Z,9.98
2019-06-26T12:10:51.054Z,9.95
2019-06-26T12:13:17.682Z,9.78
2019-06-26T12:15:44.046Z,8.65
2019-06-26T12:18:10.542Z,9.58
2019-06-26T12:20:36.839Z,10.35
2019-06-26T12:23:03.254Z,10.40
2019-06-26T12:25:29.523Z,11.83
2019-06-26T12:27:55.906Z,9.68
2019-06-26T12:30:22.579Z,9.58
2019-06-26T12:33:02.487Z,10.68
2019-06-26T12:35:17.527Z,9.23
2019-06-26T12:37:44.082Z,9.60
2019-06-26T12:40:10.842Z,9.70
2019-06-26T12:42:37.428Z,9.78
2019-06-26T12:45:05.302Z,10.23
2019-06-26T12:47:31.746Z,10.38
2019-06-26T12:49:58.005Z,9.18
2019-06-26T12:52:24.394Z,9.68
2019-06-26T12:54:50.774Z,8.93
2019-06-26T12:57:17.338Z,8.63
2019-06-26T12:59:56.512Z,8.35
2019-06-26T13:02:11.794Z,9.13
2019-06-26T13:04:38.172Z,9.13
2019-06-26T13:07:04.662Z,9.05
2019-06-26T13:09:30.971Z,8.55
2019-06-26T13:11:57.497Z,7.85
2019-06-26T13:14:23.768Z,8.53
2019-06-26T13:16:50.050Z,8.58
2019-06-26T13:19:16.461Z,8.50
2019-06-26T13:22:02.822Z,8.83
2019-06-26T13:24:29.251Z,8.43
2019-06-26T13:26:55.973Z,9.18
2019-06-26T13:29:22.334Z,9.83
2019-06-26T13:31:48.735Z,9.48
2019-06-26T13:34:15.378Z,9.70
2019-06-26T13:36:42.137Z,9.13
2019-06-26T13:39:08.875Z,8.60
2019-06-26T13:41:35.506Z,10.40
2019-06-26T13:44:01.881Z,8.83
2019-06-26T13:46:28.542Z,8.18
2019-06-26T13:48:54.831Z,8.98
2019-06-26T13:51:21.705Z,7.80
2019-06-26T13:53:48.232Z,8.13
2019-06-26T13:56:14.786Z,7.80
2019-06-26T13:58:41.162Z,8.05
2019-06-26T14:01:07.526Z,7.50
2019-06-26T14:03:34.091Z,7.83
2019-06-26T14:06:00.570Z,9.98
2019-06-26T14:08:27.387Z,7.95
2019-06-26T14:10:53.646Z,7.72
2019-06-26T14:13:20.427Z,7.62
2019-06-26T14:15:46.688Z,7.42
2019-06-26T14:18:13.078Z,8.08
2019-06-26T14:20:39.371Z,8.00
2019-06-26T14:23:06.183Z,8.15
2019-06-26T14:25:32.566Z,8.13
2019-06-26T14:27:59.278Z,8.20
2019-06-26T14:30:27.924Z,8.00
2019-06-26T14:32:53.810Z,7.40
2019-06-26T14:35:20.105Z,7.35
2019-06-26T14:37:46.386Z,7.87
2019-06-26T14:40:13.478Z,9.58
2019-06-26T14:42:39.738Z,7.62
2019-06-26T14:45:06.753Z,8.73
2019-06-26T14:47:35.546Z,9.78
2019-06-26T14:50:03.108Z,8.38
2019-06-26T14:52:29.471Z,7.87
2019-06-26T14:54:55.853Z,8.13
2019-06-26T14:57:25.862Z,8.78
2019-06-26T14:59:50.597Z,8.73
2019-06-26T15:02:17.031Z,7.97
2019-06-26T15:04:46.075Z,8.45
2019-06-26T15:07:11.693Z,9.75
2019-06-26T15:09:38.156Z,7.92
2019-06-26T15:12:04.787Z,9.68
2019-06-26T15:14:31.074Z,9.35
2019-06-26T15:16:57.435Z,8.63
2019-06-26T15:19:23.855Z,8.70
2019-06-26T15:21:58.379Z,9.23
2019-06-26T15:24:18.611Z,10.15
2019-06-26T15:26:44.918Z,9.08
2019-06-26T15:29:11.489Z,10.30
2019-06-26T15:31:37.907Z,9.40
2019-06-26T15:34:04.298Z,9.53
2019-06-26T15:36:30.718Z,9.08
2019-06-26T15:38:59.206Z,9.48
2019-06-26T15:41:25.535Z,9.20
2019-06-26T15:43:51.882Z,11.88
2019-06-26T15:46:18.175Z,10.15
2019-06-26T15:48:44.550Z,10.93
2019-06-26T15:51:11.827Z,13.15
2019-06-26T15:53:38.091Z,10.68
2019-06-26T15:56:04.474Z,11.40
2019-06-26T15:58:30.878Z,11.05
2019-06-26T16:00:57.165Z,10.08
2019-06-26T16:03:23.792Z,10.65
2019-06-26T16:05:50.095Z,10.65
2019-06-26T16:08:16.371Z,10.48
2019-06-26T16:10:42.670Z,10.98
2019-06-26T16:13:08.938Z,11.30
2019-06-26T16:15:35.942Z,11.48
2019-06-26T16:18:21.647Z,10.60
2019-06-26T16:20:48.167Z,10.90
2019-06-26T16:23:14.642Z,11.53
2019-06-26T16:25:41.461Z,12.35
2019-06-26T16:28:07.856Z,11.28
2019-06-26T16:30:34.630Z,10.93
2019-06-26T16:33:20.870Z,11.40
2019-06-26T16:35:47.263Z,11.10
2019-06-26T16:38:33.390Z,11.50
2019-06-26T16:40:59.882Z,11.75
2019-06-26T16:43:26.145Z,10.55
2019-06-26T16:45:52.451Z,11.20
2019-06-26T16:48:18.827Z,12.58
2019-06-26T16:50:45.285Z,11.38
2019-06-26T16:53:11.650Z,12.45
2019-06-26T16:55:38.043Z,11.97
2019-06-26T16:58:04.338Z,10.60
2019-06-26T17:00:30.728Z,11.55
2019-06-26T17:02:57.079Z,11.00
2019-06-26T17:05:23.731Z,11.70
2019-06-26T17:07:50.098Z,11.73
2019-06-26T17:10:17.135Z,11.20
2019-06-26T17:12:43.498Z,12.25
2019-06-26T17:15:10.167Z,12.53
2019-06-26T17:17:36.459Z,11.83
2019-06-26T17:20:03.852Z,11.93
2019-06-26T17:22:30.504Z,12.15
2019-06-26T17:24:57.159Z,12.13
2019-06-26T17:27:23.532Z,11.95
2019-06-26T17:29:50.108Z,12.05
2019-06-26T17:32:16.464Z,13.35
2019-06-26T17:34:42.863Z,12.45
2019-06-26T17:37:09.172Z,12.88
2019-06-26T17:39:35.526Z,12.80
2019-06-26T17:42:01.919Z,12.43
2019-06-26T17:44:28.302Z,12.70
2019-06-26T17:46:54.712Z,12.40
2019-06-26T17:49:20.987Z,12.98
2019-06-26T17:51:47.710Z,13.65
2019-06-26T17:54:14.136Z,13.50
2019-06-26T17:56:40.420Z,12.95
2019-06-26T17:59:06.811Z,13.15
2019-06-26T18:01:33.278Z,14.85
2019-06-26T18:03:59.967Z,13.88
2019-06-26T18:06:26.599Z,14.23
2019-06-26T18:08:52.884Z,14.70
2019-06-26T18:11:19.155Z,14.63
2019-06-26T18:13:45.823Z,13.20
2019-06-26T18:16:12.440Z,13.60
2019-06-26T18:18:38.835Z,13.60
2019-06-26T18:21:05.334Z,14.13
2019-06-26T18:23:37.729Z,13.72
2019-06-26T18:26:12.276Z,12.78
2019-06-26T18:28:28.607Z,14.13
2019-06-26T18:30:54.987Z,13.03
2019-06-26T18:33:21.265Z,13.13
2019-06-26T18:35:47.908Z,13.32
2019-06-26T18:38:14.402Z,13.70
2019-06-26T18:40:40.762Z,12.88
2019-06-26T18:43:07.067Z,13.95
2019-06-26T18:45:33.562Z,14.47
2019-06-26T18:48:00.174Z,13.95
2019-06-26T18:50:26.466Z,13.32
2019-06-26T18:52:52.863Z,13.08
2019-06-26T18:55:19.499Z,12.23
2019-06-26T18:57:45.864Z,13.20
2019-06-26T19:00:13.000Z,13.18
2019-06-26T19:02:39.463Z,12.15
2019-06-26T19:05:07.367Z,12.78
2019-06-26T19:07:33.627Z,12.95
2019-06-26T19:10:00.234Z,12.25
2019-06-26T19:12:26.603Z,12.58
2019-06-26T19:14:52.927Z,13.60
2019-06-26T19:17:19.294Z,12.95
2019-06-26T19:19:45.583Z,11.97
2019-06-26T19:22:12.321Z,11.97
2019-06-26T19:24:38.824Z,12.13
2019-06-26T19:27:07.652Z,12.05
2019-06-26T19:29:33.710Z,12.95
2019-06-26T19:32:00.383Z,12.00
2019-06-26T19:34:26.752Z,12.47
2019-06-26T19:36:54.147Z,12.20
2019-06-26T19:39:21.032Z,12.05
2019-06-26T19:41:48.282Z,11.85
2019-06-26T19:44:14.773Z,11.63
2019-06-26T19:46:42.090Z,12.23
2019-06-26T19:49:08.535Z,11.65
2019-06-26T19:51:34.934Z,11.65
2019-06-26T19:54:01.288Z,12.27
2019-06-26T19:56:27.683Z,12.57
2019-06-26T19:58:54.250Z,12.17
2019-06-26T20:01:20.543Z,13.87
2019-06-26T20:03:47.110Z,10.93
2019-06-26T20:06:13.420Z,10.90
2019-06-26T20:08:53.111Z,11.43
2019-06-26T20:11:08.154Z,11.47
2019-06-26T20:13:34.418Z,10.60
2019-06-26T20:16:00.734Z,11.20
2019-06-26T20:18:27.107Z,10.40
2019-06-26T20:20:53.410Z,10.87
2019-06-26T20:23:20.143Z,10.90
2019-06-26T20:25:46.491Z,9.80
2019-06-26T20:28:12.784Z,9.87
2019-06-26T20:30:39.151Z,9.90
2019-06-26T20:33:05.458Z,9.70
2019-06-26T20:35:31.961Z,9.37
2019-06-26T20:37:58.624Z,9.40
2019-06-26T20:40:24.889Z,9.00
2019-06-26T20:42:51.191Z,9.13
2019-06-26T20:45:17.846Z,8.97
2019-06-26T20:47:44.142Z,8.93
2019-06-26T20:50:10.902Z,8.80
2019-06-26T20:52:37.302Z,8.87
2019-06-26T20:55:04.985Z,9.40
2019-06-26T20:57:31.377Z,8.23
2019-06-26T20:59:57.740Z,9.17
2019-06-26T21:02:24.483Z,8.83
2019-06-26T21:04:50.985Z,8.17
2019-06-26T21:07:17.487Z,9.97
2019-06-26T21:09:43.848Z,11.20
2019-06-26T21:12:10.611Z,10.43
2019-06-26T21:14:37.019Z,9.03
2019-06-26T21:17:03.321Z,8.50
2019-06-26T21:19:30.866Z,8.40
2019-06-26T21:21:57.291Z,9.30
2019-06-26T21:24:23.596Z,8.70
2019-06-26T21:26:49.952Z,8.47
2019-06-26T21:29:16.262Z,11.17
2019-06-26T21:31:42.615Z,8.93
2019-06-26T21:34:08.947Z,8.93
2019-06-26T21:36:35.298Z,8.63
2019-06-26T21:39:01.694Z,9.03
2019-06-26T21:41:29.969Z,10.80
2019-06-26T21:43:56.471Z,8.23
2019-06-26T21:46:22.741Z,8.23
2019-06-26T21:48:49.475Z,8.80
2019-06-26T21:51:15.743Z,8.67
2019-06-26T21:53:42.035Z,9.13
2019-06-26T21:56:27.151Z,9.17
2019-06-26T21:59:12.027Z,8.20
2019-06-26T22:01:57.153Z,8.67
2019-06-26T22:04:42.051Z,7.87
2019-06-26T22:07:16.287Z,9.87
2019-06-26T22:10:05.364Z,8.67
2019-06-26T22:12:33.641Z,8.10
2019-06-26T22:14:59.936Z,8.37
2019-06-26T22:17:26.815Z,8.03
2019-06-26T22:19:53.198Z,8.03
2019-06-26T22:22:19.499Z,8.80
2019-06-26T22:24:46.882Z,8.03
2019-06-26T22:27:14.364Z,8.77
2019-06-26T22:29:40.759Z,8.17
2019-06-26T22:32:07.387Z,7.50
2019-06-26T22:34:33.708Z,7.50
2019-06-26T22:37:00.067Z,7.90
2019-06-26T22:39:26.470Z,7.60
2019-06-26T22:41:52.738Z,7.60
2019-06-26T22:44:19.115Z,7.80
2019-06-26T22:46:45.503Z,7.87
2019-06-26T22:49:11.771Z,7.57
2019-06-26T22:51:38.168Z,7.03
2019-06-26T22:54:04.736Z,7.57
2019-06-26T22:56:31.128Z,8.20
2019-06-26T22:58:57.444Z,7.47
2019-06-26T23:01:23.784Z,6.90
2019-06-26T23:03:51.300Z,7.13
2019-06-26T23:06:17.704Z,8.23
2019-06-26T23:08:44.079Z,7.73
2019-06-26T23:11:10.636Z,7.60
2019-06-26T23:13:37.276Z,7.07
2019-06-26T23:16:03.884Z,7.70
2019-06-26T23:18:30.167Z,6.97
2019-06-26T23:20:56.568Z,6.73
2019-06-26T23:23:22.836Z,6.97
2019-06-26T23:25:49.299Z,7.57
2019-06-26T23:28:15.834Z,8.03
2019-06-26T23:30:42.200Z,8.80
2019-06-26T23:33:08.680Z,6.97
2019-06-26T23:35:35.072Z,7.80
2019-06-26T23:38:03.159Z,6.83
2019-06-26T23:40:29.428Z,6.83
2019-06-26T23:42:55.738Z,6.87
2019-06-26T23:45:22.454Z,7.43
2019-06-26T23:47:48.805Z,6.30
2019-06-26T23:50:15.230Z,8.13
2019-06-26T23:52:41.731Z,7.93
2019-06-26T23:55:08.213Z,7.73
2019-06-26T23:57:34.870Z,6.60
